Terminal Aerodrome Forecast
Issued by NWS

Home | Current Version | Previous Version | Text Only | Print | Product List | Glossary On
Versions: 1 2 3 4 5 6 7 8 9 10 11 12 13 14 15 16 17 18 19 20
000
FTUS44 KSJT 160500
TAFJCT
TAF
KJCT 160520Z 1606/1706 08005KT P6SM SCT050 BKN250
     FM161000 VRB04KT P6SM BKN050
     FM161300 VRB04KT P6SM SCT015
     FM161800 VRB04KT P6SM SCT040 BKN250=

USA.gov is the U.S. government's official web portal to all federal, state and local government web resources and services.